This is the latest recevied weather packets stored in our database for station/object K4AMF. If no packets are shown the sender has not sent any weather packets the latest 10 day(s).
| Time | Temp. | Humidity | Pressure | Rain* | Wind** | Luminosity | Snow |
|---|---|---|---|---|---|---|---|
| 1778090453 | 31.67° C | 50% | 1017.1 hPa | 0 mm | - | 717 W/m² | - |
| 1778090149 | 31.11° C | 52% | 1017.1 hPa | 0 mm | - | 730 W/m² | - |
| 1778089846 | 30.56° C | 54% | 1017.1 hPa | 0 mm | - | 746 W/m² | - |
| 1778089545 | 30.56° C | 55% | 1017.2 hPa | 0 mm | - | 724 W/m² | - |
| 1778089240 | 30.56° C | 55% | 1017.2 hPa | 0 mm | - | 717 W/m² | - |
| 1778088938 | 30.56° C | 55% | 1017.3 hPa | 0 mm | - | 753 W/m² | - |
| 1778088635 | 30° C | 56% | 1017.3 hPa | 0 mm | - | 622 W/m² | - |
| 1778088332 | 30° C | 58% | 1017.8 hPa | 0 mm | - | 665 W/m² | - |
| 1778088028 | 30° C | 57% | 1017.5 hPa | 0 mm | - | 684 W/m² | - |
| 1778087726 | 30° C | 57% | 1017.6 hPa | 0 mm | - | 678 W/m² | - |
| 1778087423 | 30° C | 57% | 1017.7 hPa | 0 mm | - | 277 W/m² | - |
| 1778087120 | 30.56° C | 58% | 1017.8 hPa | 0 mm | - | 584 W/m² | - |
| 1778086813 | 30° C | 58% | 1017.6 hPa | 0 mm | - | 642 W/m² | - |
| 1778086511 | 29.44° C | 60% | 1017.9 hPa | 0 mm | - | 630 W/m² | - |
| 1778086206 | 29.44° C | 59% | 1018.1 hPa | 0 mm | - | 644 W/m² | - |
| 1778085903 | 30° C | 60% | 1017.8 hPa | 0 mm | - | 601 W/m² | - |
| 1778085601 | 30.56° C | 58% | 1017.9 hPa | 0 mm | - | 601 W/m² | - |
| 1778085295 | 28.89° C | 63% | 1018 hPa | 0 mm | - | 636 W/m² | - |
| 1778084990 | 28.89° C | 63% | 1018.1 hPa | 0 mm | - | 577 W/m² | - |
| 1778084688 | 28.89° C | 63% | 1018.3 hPa | 0 mm | - | 647 W/m² | - |
| 1778084380 | 28.89° C | 63% | 1018.3 hPa | 0 mm | - | 710 W/m² | - |
| 1778084077 | 28.89° C | 64% | 1018.4 hPa | 0 mm | - | 630 W/m² | - |
| 1778083769 | 28.89° C | 63% | 1018.4 hPa | 0 mm | - | 744 W/m² | - |
| 1778083467 | 28.33° C | 65% | 1018.3 hPa | 0 mm | - | 696 W/m² | - |
| 1778083164 | 28.33° C | 65% | 1018.5 hPa | 0 mm | - | 674 W/m² | - |
* Rain latest hour (hover to see other rain measurements)
** Current wind speed in m/s (hover to see current wind gust speed)